Time;durP1;ratioP1;P1;durP2;ratioP2;P2;SDS_P1;SDS_P2;PMS_P1;PMS_P2;Temp;Humidity;BMP_temperature;BMP_pressure;BME280_temperature;BME280_humidity;BME280_pressure;Samples;Min_cycle;Max_cycle;Signal;HPM_P1;HPM_P2
2023/06/07 00:00:50;;;;;;;6.55;4.50;;;11.90;96.90;;;;;;5089803;28;20295;-70
2023/06/07 00:03:16;;;;;;;7.85;4.22;;;11.90;96.90;;;;;;5081729;28;20025;-69
2023/06/07 00:05:43;;;;;;;6.55;4.28;;;12.00;96.90;;;;;;5091977;28;20032;-70
2023/06/07 00:08:09;;;;;;;6.30;4.43;;;11.90;97.00;;;;;;5078577;28;20024;-69
2023/06/07 00:10:36;;;;;;;6.07;4.40;;;11.90;96.90;;;;;;5065921;28;20049;-70
2023/06/07 00:13:02;;;;;;;8.23;4.72;;;11.90;96.70;;;;;;5085635;28;20027;-70
2023/06/07 00:15:28;;;;;;;8.82;4.57;;;11.80;96.90;;;;;;5062761;28;20028;-70
2023/06/07 00:17:53;;;;;;;6.72;4.50;;;11.70;96.70;;;;;;5092515;28;20024;-70
2023/06/07 00:20:19;;;;;;;8.43;4.60;;;11.70;96.70;;;;;;5089628;28;20147;-69
2023/06/07 00:22:47;;;;;;;7.03;4.10;;;11.60;96.30;;;;;;5090498;28;20115;-69
2023/06/07 00:25:13;;;;;;;7.03;4.57;;;11.70;96.60;;;;;;5093172;28;20061;-70
2023/06/07 00:27:38;;;;;;;7.78;4.85;;;11.70;96.70;;;;;;5083387;28;20033;-70
2023/06/07 00:30:04;;;;;;;7.28;4.65;;;11.70;96.70;;;;;;5086335;28;20020;-70
2023/06/07 00:32:33;;;;;;;7.13;4.68;;;11.70;96.40;;;;;;5071645;28;20028;-69
2023/06/07 00:34:58;;;;;;;8.05;4.88;;;11.70;96.20;;;;;;5088138;28;20035;-70
2023/06/07 00:37:24;;;;;;;7.47;4.13;;;11.60;96.50;;;;;;5077931;28;20056;-69
2023/06/07 00:39:49;;;;;;;6.70;4.72;;;11.70;96.30;;;;;;5084355;28;20029;-69
2023/06/07 00:42:15;;;;;;;7.97;4.50;;;11.70;96.40;;;;;;5067110;28;20021;-70
2023/06/07 00:44:40;;;;;;;7.20;4.32;;;11.70;96.20;;;;;;5084847;28;20113;-69
2023/06/07 00:47:06;;;;;;;8.30;4.30;;;11.70;96.30;;;;;;5083914;28;20324;-69
2023/06/07 00:49:32;;;;;;;6.82;4.30;;;11.60;96.10;;;;;;5094918;28;20485;-70
2023/06/07 00:51:58;;;;;;;7.65;4.60;;;11.70;96.40;;;;;;5077865;28;20031;-70
2023/06/07 00:54:24;;;;;;;7.40;4.63;;;11.70;96.40;;;;;;5087436;28;20111;-69
2023/06/07 00:56:50;;;;;;;6.70;4.35;;;11.70;96.10;;;;;;5075256;28;20397;-70
2023/06/07 00:59:20;;;;;;;6.32;4.20;;;11.60;96.20;;;;;;5069581;28;20039;-68
2023/06/07 01:01:48;;;;;;;7.13;4.30;;;11.60;96.10;;;;;;5084359;28;20032;-68
2023/06/07 01:04:14;;;;;;;6.63;4.32;;;11.60;96.20;;;;;;5086518;28;20393;-68
2023/06/07 01:06:40;;;;;;;7.53;4.55;;;11.70;96.40;;;;;;5090256;28;20108;-68
2023/06/07 01:09:12;;;;;;;6.28;4.45;;;11.60;96.00;;;;;;5082119;28;20103;-69
2023/06/07 01:11:41;;;;;;;6.10;4.32;;;11.60;95.70;;;;;;5076078;28;20028;-70
2023/06/07 01:14:09;;;;;;;6.88;4.78;;;11.60;95.80;;;;;;5090746;28;20032;-70
2023/06/07 01:16:35;;;;;;;8.88;5.00;;;11.60;95.70;;;;;;5090097;28;20017;-70
2023/06/07 01:19:03;;;;;;;6.85;4.45;;;11.60;95.70;;;;;;5094471;28;20026;-70
2023/06/07 01:21:29;;;;;;;7.68;3.90;;;11.60;95.70;;;;;;5092849;28;20028;-70
2023/06/07 01:23:56;;;;;;;8.48;4.63;;;11.60;95.50;;;;;;5090828;28;20025;-70
2023/06/07 01:26:26;;;;;;;7.97;4.65;;;11.60;95.20;;;;;;5083948;28;20033;-69
2023/06/07 01:28:53;;;;;;;7.43;4.40;;;11.60;95.20;;;;;;5092335;28;20028;-70
2023/06/07 01:31:25;;;;;;;6.85;4.40;;;11.60;95.20;;;;;;5093568;28;20040;-69
2023/06/07 01:33:51;;;;;;;6.32;4.53;;;11.60;95.10;;;;;;5073348;28;20036;-69
2023/06/07 01:36:17;;;;;;;7.85;4.80;;;11.60;94.90;;;;;;5093219;28;20090;-70
2023/06/07 01:38:47;;;;;;;7.25;4.53;;;11.50;94.50;;;;;;5077174;28;20726;-70
2023/06/07 01:41:13;;;;;;;6.35;4.68;;;11.50;94.70;;;;;;5086695;28;20409;-69
2023/06/07 01:43:39;;;;;;;6.65;4.93;;;11.40;94.50;;;;;;5089527;28;20035;-70
2023/06/07 01:46:05;;;;;;;6.72;4.28;;;11.40;94.50;;;;;;5091519;28;20025;-69
2023/06/07 01:48:31;;;;;;;6.38;4.57;;;11.40;94.10;;;;;;5080692;28;20024;-70
2023/06/07 01:50:56;;;;;;;6.43;4.50;;;11.30;93.80;;;;;;5082443;28;20418;-70
2023/06/07 01:53:22;;;;;;;6.28;4.60;;;11.30;93.70;;;;;;5076546;28;20158;-70
2023/06/07 01:56:06;;;;;;;6.53;4.15;;;11.30;93.90;;;;;;5059877;28;20052;-70
2023/06/07 01:58:40;;;;;;;;;;;11.30;93.70;;;;;;5092797;28;20013;-71
2023/06/07 02:01:21;;;;;;;9.13;4.68;;;11.40;93.80;;;;;;5081798;28;19912;-70
2023/06/07 02:03:51;;;;;;;6.03;4.30;;;11.30;93.80;;;;;;5075028;28;20064;-69
2023/06/07 02:06:27;;;;;;;6.85;4.70;;;11.40;94.20;;;;;;5082566;28;20025;-69
2023/06/07 02:08:54;;;;;;;6.72;4.43;;;11.30;94.00;;;;;;5083488;28;20028;-70
2023/06/07 02:11:22;;;;;;;7.88;4.88;;;11.30;93.60;;;;;;5092931;28;20031;-69
2023/06/07 02:13:49;;;;;;;9.13;5.07;;;11.30;93.50;;;;;;5066013;28;20036;-70
2023/06/07 02:16:15;;;;;;;6.07;4.57;;;11.30;93.40;;;;;;5088261;28;20134;-69
2023/06/07 02:18:41;;;;;;;8.32;4.55;;;11.30;93.80;;;;;;5086235;28;20144;-70
2023/06/07 02:21:07;;;;;;;6.35;4.15;;;11.30;94.00;;;;;;5095126;28;20020;-70
2023/06/07 02:23:33;;;;;;;6.72;4.22;;;11.20;94.10;;;;;;5097203;28;20024;-69
2023/06/07 02:25:59;;;;;;;6.72;4.20;;;11.10;93.30;;;;;;5091315;28;20317;-70
2023/06/07 02:28:26;;;;;;;6.70;4.80;;;11.10;92.90;;;;;;5082921;28;20115;-68
2023/06/07 02:30:55;;;;;;;7.85;4.88;;;11.10;92.90;;;;;;5094460;28;20028;-70
2023/06/07 02:33:21;;;;;;;7.28;4.38;;;11.00;92.60;;;;;;5081043;28;20031;-70
2023/06/07 02:35:49;;;;;;;6.28;4.50;;;11.00;92.40;;;;;;5093035;28;20024;-70
2023/06/07 02:38:15;;;;;;;8.82;4.97;;;10.90;92.40;;;;;;5085726;28;20425;-70
2023/06/07 02:40:41;;;;;;;7.53;4.68;;;10.90;92.80;;;;;;5088596;28;20077;-70
2023/06/07 02:43:06;;;;;;;6.00;4.50;;;10.80;92.20;;;;;;5096135;28;20031;-70
2023/06/07 02:45:32;;;;;;;6.75;4.82;;;10.70;91.50;;;;;;5095637;28;20371;-69
2023/06/07 02:47:57;;;;;;;6.72;4.60;;;10.60;90.90;;;;;;5092825;28;20371;-70
2023/06/07 02:50:24;;;;;;;9.10;5.25;;;10.60;90.80;;;;;;5089397;28;20055;-70
2023/06/07 02:52:50;;;;;;;7.68;5.05;;;10.70;90.30;;;;;;5101428;28;20310;-70
2023/06/07 02:55:16;;;;;;;8.10;5.07;;;10.70;90.20;;;;;;5091201;28;20016;-70
2023/06/07 02:57:42;;;;;;;8.55;5.32;;;10.70;90.70;;;;;;5095287;28;20035;-71
2023/06/07 03:00:10;;;;;;;6.10;4.65;;;10.70;90.70;;;;;;5073549;28;20074;-70
2023/06/07 03:02:37;;;;;;;6.45;4.63;;;10.70;90.90;;;;;;5097419;28;20024;-70
2023/06/07 03:05:03;;;;;;;6.57;5.03;;;10.60;90.80;;;;;;5098111;28;20495;-70
2023/06/07 03:07:34;;;;;;;7.55;4.78;;;10.50;90.90;;;;;;5077643;28;20032;-70
2023/06/07 03:10:00;;;;;;;6.43;4.45;;;10.30;91.00;;;;;;5093726;28;20028;-70
2023/06/07 03:12:26;;;;;;;5.80;4.10;;;10.20;90.60;;;;;;5096880;28;20141;-70
2023/06/07 03:14:51;;;;;;;6.97;5.10;;;10.20;89.80;;;;;;5079760;28;20112;-70
2023/06/07 03:17:17;;;;;;;6.60;4.78;;;10.20;89.60;;;;;;5088719;28;20028;-69
2023/06/07 03:19:43;;;;;;;6.85;5.22;;;10.10;89.40;;;;;;5097824;28;20142;-70
2023/06/07 03:22:09;;;;;;;8.77;5.30;;;10.10;89.20;;;;;;5088583;28;20111;-69
2023/06/07 03:24:36;;;;;;;6.13;4.45;;;10.10;89.20;;;;;;5076818;28;20107;-69
2023/06/07 03:27:05;;;;;;;6.47;4.97;;;10.10;89.30;;;;;;5087768;28;20032;-69
2023/06/07 03:29:31;;;;;;;7.28;4.47;;;10.20;89.80;;;;;;5080957;28;20036;-71
2023/06/07 03:31:57;;;;;;;7.30;4.95;;;10.30;90.10;;;;;;5090162;28;20024;-69
2023/06/07 03:34:23;;;;;;;10.45;4.97;;;10.30;90.60;;;;;;5097495;28;20028;-70
2023/06/07 03:36:49;;;;;;;6.82;4.63;;;10.30;90.80;;;;;;5096397;28;20123;-69
2023/06/07 03:39:15;;;;;;;8.27;4.80;;;10.30;90.80;;;;;;5096272;28;20058;-69
2023/06/07 03:41:40;;;;;;;7.60;5.25;;;10.40;91.30;;;;;;5086466;28;20024;-70
2023/06/07 03:44:09;;;;;;;7.32;4.55;;;10.30;91.70;;;;;;5093935;28;20035;-69
2023/06/07 03:46:34;;;;;;;7.88;5.00;;;10.40;91.90;;;;;;5099227;28;20102;-69
2023/06/07 03:49:06;;;;;;;6.82;4.55;;;10.40;92.70;;;;;;5088161;28;20466;-70
2023/06/07 03:51:37;;;;;;;6.53;4.35;;;10.40;93.00;;;;;;5086422;28;20028;-69
2023/06/07 03:54:02;;;;;;;6.75;4.80;;;10.50;93.10;;;;;;5090198;28;20027;-69
2023/06/07 03:56:29;;;;;;;9.00;5.10;;;10.40;92.90;;;;;;5093840;28;20024;-68
2023/06/07 03:58:55;;;;;;;6.88;4.43;;;10.40;92.80;;;;;;5094388;28;20078;-68
2023/06/07 04:01:25;;;;;;;7.00;4.95;;;10.30;91.90;;;;;;5094351;28;20028;-68
2023/06/07 04:03:51;;;;;;;7.43;4.75;;;10.30;91.80;;;;;;5094125;28;20493;-68
2023/06/07 04:06:20;;;;;;;7.38;4.65;;;10.30;91.60;;;;;;5091151;28;20035;-69
2023/06/07 04:08:46;;;;;;;6.53;4.88;;;10.20;91.80;;;;;;5095068;28;20024;-70
2023/06/07 04:11:12;;;;;;;7.00;4.70;;;10.10;91.60;;;;;;5101815;28;20056;-70
2023/06/07 04:13:37;;;;;;;6.45;5.15;;;10.10;90.60;;;;;;5086541;28;20063;-70
2023/06/07 04:16:06;;;;;;;7.13;4.78;;;10.10;90.20;;;;;;5090184;28;20282;-70
2023/06/07 04:18:31;;;;;;;6.53;4.85;;;10.10;89.50;;;;;;5087148;28;20106;-70
2023/06/07 04:20:57;;;;;;;6.40;4.72;;;10.10;89.20;;;;;;5093390;28;20710;-70
2023/06/07 04:23:22;;;;;;;7.07;4.72;;;10.10;89.00;;;;;;5093385;28;20041;-70
2023/06/07 04:25:48;;;;;;;6.07;4.53;;;10.10;88.80;;;;;;5091632;28;20032;-70
2023/06/07 04:28:13;;;;;;;7.68;4.85;;;10.10;88.90;;;;;;5074750;28;20028;-69
2023/06/07 04:30:40;;;;;;;7.15;5.20;;;10.20;88.70;;;;;;5094055;28;20028;-70
2023/06/07 04:33:12;;;;;;;10.88;4.90;;;10.20;88.50;;;;;;5095011;28;20035;-70
2023/06/07 04:35:43;;;;;;;6.93;4.80;;;10.20;88.70;;;;;;5079454;28;20020;-70
2023/06/07 04:38:15;;;;;;;6.50;4.55;;;10.30;88.50;;;;;;5093547;28;20028;-70
2023/06/07 04:40:42;;;;;;;7.85;4.65;;;10.30;88.80;;;;;;5085601;28;20034;-70
2023/06/07 04:43:08;;;;;;;6.78;4.78;;;10.40;88.70;;;;;;5087903;28;20036;-70
2023/06/07 04:45:36;;;;;;;7.00;4.78;;;10.40;88.30;;;;;;5083679;28;20024;-68
2023/06/07 04:48:04;;;;;;;6.95;5.00;;;10.50;88.30;;;;;;5088846;28;20028;-69
2023/06/07 04:50:30;;;;;;;8.18;5.18;;;10.50;88.60;;;;;;5083222;28;20034;-70
2023/06/07 04:53:00;;;;;;;8.82;5.28;;;10.60;88.60;;;;;;5093318;28;20103;-69
2023/06/07 04:55:28;;;;;;;7.95;5.22;;;10.70;88.90;;;;;;5083601;28;20081;-69
2023/06/07 04:57:54;;;;;;;7.57;5.00;;;10.70;88.90;;;;;;5072233;28;20362;-69
2023/06/07 05:00:20;;;;;;;8.82;5.93;;;10.80;88.60;;;;;;5081023;28;20020;-69
2023/06/07 05:02:46;;;;;;;7.93;4.70;;;10.90;88.70;;;;;;5080096;28;20020;-69
2023/06/07 05:05:13;;;;;;;7.28;4.43;;;10.90;88.90;;;;;;5083386;28;20425;-69
2023/06/07 05:07:41;;;;;;;7.03;4.80;;;11.00;89.70;;;;;;5083945;28;20020;-69
2023/06/07 05:10:07;;;;;;;7.57;4.63;;;11.10;90.10;;;;;;5088917;28;20025;-69
2023/06/07 05:12:33;;;;;;;8.07;4.70;;;11.20;90.70;;;;;;5089031;28;20444;-69
2023/06/07 05:14:59;;;;;;;6.45;4.60;;;11.30;91.00;;;;;;5075210;28;20433;-68
2023/06/07 05:17:28;;;;;;;7.15;4.57;;;11.40;91.00;;;;;;5082818;28;20089;-70
2023/06/07 05:19:57;;;;;;;9.02;4.50;;;11.50;91.10;;;;;;5098720;28;20027;-68
2023/06/07 05:22:22;;;;;;;6.75;4.70;;;11.70;91.30;;;;;;5087164;28;20029;-70
2023/06/07 05:24:48;;;;;;;7.45;4.13;;;11.80;91.60;;;;;;5089871;28;20335;-69
2023/06/07 05:27:14;;;;;;;8.35;4.47;;;12.00;92.20;;;;;;5094780;28;20301;-69
2023/06/07 05:29:40;;;;;;;7.32;4.35;;;12.20;93.10;;;;;;5076123;28;20028;-68
2023/06/07 05:32:06;;;;;;;7.90;4.80;;;12.40;93.90;;;;;;5093259;28;20129;-68
2023/06/07 05:34:32;;;;;;;7.25;4.93;;;12.60;94.90;;;;;;5096784;28;20216;-68
2023/06/07 05:36:58;;;;;;;6.43;4.60;;;12.70;96.40;;;;;;5080306;28;20134;-68
2023/06/07 05:39:23;;;;;;;7.05;4.53;;;12.90;97.00;;;;;;5096462;28;20476;-69
2023/06/07 05:41:50;;;;;;;7.65;4.10;;;13.10;97.40;;;;;;5096302;28;20036;-68
2023/06/07 05:44:17;;;;;;;7.28;4.45;;;13.40;97.20;;;;;;5096604;28;20107;-69
2023/06/07 05:46:42;;;;;;;6.05;4.00;;;13.60;97.80;;;;;;5097256;28;20107;-69
2023/06/07 05:49:08;;;;;;;6.60;4.25;;;13.70;98.00;;;;;;5087797;28;20115;-69
2023/06/07 05:51:33;;;;;;;7.00;4.18;;;13.90;98.00;;;;;;5066902;28;21488;-70
2023/06/07 05:53:59;;;;;;;6.75;3.85;;;14.00;98.00;;;;;;5076881;28;20031;-69
2023/06/07 05:56:25;;;;;;;5.40;3.88;;;14.20;97.90;;;;;;5083357;28;20025;-69
2023/06/07 05:58:50;;;;;;;5.75;4.07;;;14.40;97.60;;;;;;5089208;28;20134;-69
2023/06/07 06:01:17;;;;;;;6.68;3.95;;;14.60;96.90;;;;;;5089616;28;20016;-69
2023/06/07 06:03:43;;;;;;;6.40;3.92;;;14.80;96.70;;;;;;5097901;28;20106;-69
2023/06/07 06:06:16;;;;;;;6.32;3.35;;;15.00;96.30;;;;;;5091292;28;20110;-69
2023/06/07 06:08:44;;;;;;;5.55;3.70;;;15.10;95.70;;;;;;5074467;28;20052;-69
2023/06/07 06:11:12;;;;;;;6.88;4.07;;;15.30;95.20;;;;;;5093221;28;20023;-69
2023/06/07 06:13:38;;;;;;;6.50;3.80;;;15.30;94.70;;;;;;5080554;28;20093;-69
2023/06/07 06:16:04;;;;;;;8.10;4.30;;;15.40;94.60;;;;;;5085803;28;20500;-69
2023/06/07 06:18:30;;;;;;;7.85;4.10;;;15.50;94.60;;;;;;5077899;28;20024;-69
2023/06/07 06:20:56;;;;;;;7.95;4.78;;;15.60;94.80;;;;;;5075618;28;20086;-69
2023/06/07 06:23:22;;;;;;;6.82;4.88;;;15.70;95.20;;;;;;5078670;28;20031;-69
2023/06/07 06:25:47;;;;;;;9.48;4.68;;;15.70;95.80;;;;;;5080694;28;20024;-67
2023/06/07 06:28:14;;;;;;;9.80;4.80;;;15.70;95.40;;;;;;5059350;28;20027;-69
2023/06/07 06:30:39;;;;;;;7.90;4.45;;;15.70;95.30;;;;;;5078339;28;20028;-69
2023/06/07 06:33:05;;;;;;;7.38;4.82;;;15.70;95.80;;;;;;5057786;28;20040;-69
2023/06/07 06:35:32;;;;;;;7.05;4.43;;;15.80;95.90;;;;;;5076095;28;20028;-69
2023/06/07 06:37:59;;;;;;;6.55;4.25;;;15.90;95.80;;;;;;5075449;28;20045;-69
2023/06/07 06:40:28;;;;;;;6.68;3.95;;;16.10;95.40;;;;;;5059211;28;20114;-68
2023/06/07 06:42:54;;;;;;;7.50;4.82;;;16.30;95.00;;;;;;5081953;28;20309;-69
2023/06/07 06:45:20;;;;;;;6.90;4.65;;;16.50;94.60;;;;;;5091331;28;20413;-69
2023/06/07 06:47:45;;;;;;;7.38;4.50;;;16.70;94.30;;;;;;5072370;28;20024;-81
2023/06/07 06:50:12;;;;;;;6.90;3.97;;;17.00;93.80;;;;;;5075931;28;20032;-68
2023/06/07 06:52:39;;;;;;;7.20;4.60;;;17.00;93.70;;;;;;5073298;28;20024;-67
2023/06/07 06:55:05;;;;;;;9.45;3.85;;;16.80;93.70;;;;;;5057417;28;20515;-67
2023/06/07 06:57:31;;;;;;;6.75;4.25;;;16.50;94.00;;;;;;5077966;28;20032;-67
2023/06/07 06:59:57;;;;;;;6.95;3.88;;;16.30;94.90;;;;;;5080202;28;20417;-68
2023/06/07 07:02:23;;;;;;;11.40;5.40;;;16.40;95.80;;;;;;5086783;28;20021;-70
2023/06/07 07:04:48;;;;;;;14.60;9.10;;;16.50;95.40;;;;;;5058175;28;20093;-69
2023/06/07 07:07:14;;;;;;;13.02;8.00;;;16.60;94.50;;;;;;5075202;28;20039;-68
2023/06/07 07:09:40;;;;;;;7.35;4.80;;;16.60;94.60;;;;;;5081060;28;20074;-69
2023/06/07 07:12:06;;;;;;;9.23;4.53;;;16.70;94.60;;;;;;5076142;28;20032;-69
2023/06/07 07:14:32;;;;;;;7.30;4.85;;;16.90;93.80;;;;;;5089090;28;20376;-70
2023/06/07 07:16:58;;;;;;;8.82;4.20;;;17.00;93.90;;;;;;5092662;28;20099;-69
2023/06/07 07:19:23;;;;;;;10.18;4.30;;;17.30;93.80;;;;;;5082756;28;20051;-70
2023/06/07 07:21:52;;;;;;;9.23;4.50;;;17.60;92.30;;;;;;5080668;28;20028;-70
2023/06/07 07:24:17;;;;;;;6.80;4.72;;;18.10;90.20;;;;;;5079180;28;20035;-69
2023/06/07 07:26:43;;;;;;;7.13;4.03;;;18.80;89.50;;;;;;5076529;28;20028;-69
2023/06/07 07:29:09;;;;;;;7.40;4.15;;;19.60;87.40;;;;;;5087045;28;20028;-69
2023/06/07 07:31:34;;;;;;;9.05;4.15;;;20.30;85.40;;;;;;5077805;28;20033;-69
2023/06/07 07:34:02;;;;;;;8.82;3.85;;;20.80;84.20;;;;;;5073535;28;20036;-69
2023/06/07 07:36:27;;;;;;;7.78;3.88;;;21.20;82.50;;;;;;5076016;28;20405;-69
2023/06/07 07:38:53;;;;;;;6.00;3.72;;;21.50;80.80;;;;;;5074971;28;20044;-69
2023/06/07 07:41:19;;;;;;;8.32;4.43;;;21.90;80.40;;;;;;5074073;28;20325;-69
2023/06/07 07:43:45;;;;;;;6.20;3.45;;;22.30;78.30;;;;;;5074862;28;20048;-69
2023/06/07 07:46:11;;;;;;;8.38;3.67;;;23.00;77.20;;;;;;5084857;28;20025;-69
2023/06/07 07:48:37;;;;;;;5.68;3.63;;;23.70;75.00;;;;;;5083878;28;20030;-69
2023/06/07 07:51:02;;;;;;;6.10;3.25;;;23.90;74.20;;;;;;5082551;28;20099;-69
2023/06/07 07:53:28;;;;;;;7.80;4.15;;;23.60;74.50;;;;;;5076362;28;20037;-69
2023/06/07 07:55:53;;;;;;;5.30;3.40;;;23.50;73.90;;;;;;5077777;28;20024;-69
2023/06/07 07:58:19;;;;;;;5.03;3.17;;;23.30;73.40;;;;;;5081770;28;20067;-69
2023/06/07 08:00:45;;;;;;;6.60;3.50;;;23.10;74.60;;;;;;5080319;28;20327;-69
2023/06/07 08:03:11;;;;;;;7.57;4.18;;;23.40;73.60;;;;;;5082133;28;20021;-69
2023/06/07 08:05:39;;;;;;;6.40;3.50;;;23.20;73.60;;;;;;5092166;28;20024;-69
2023/06/07 08:08:05;;;;;;;6.68;3.50;;;23.10;73.80;;;;;;5094222;28;20032;-69
2023/06/07 08:10:30;;;;;;;8.50;3.05;;;23.20;73.20;;;;;;5077222;28;20025;-68
2023/06/07 08:12:56;;;;;;;5.45;2.80;;;23.50;73.80;;;;;;5094453;28;20024;-69
2023/06/07 08:15:22;;;;;;;7.18;3.08;;;24.10;71.70;;;;;;5084705;28;20056;-69
2023/06/07 08:17:47;;;;;;;5.97;3.20;;;24.50;68.50;;;;;;5071564;28;20024;-69
2023/06/07 08:20:13;;;;;;;5.10;3.08;;;24.50;67.60;;;;;;5076812;28;20021;-70
2023/06/07 08:22:38;;;;;;;6.85;3.28;;;24.10;68.80;;;;;;5078708;28;20033;-69
2023/06/07 08:25:05;;;;;;;7.57;3.45;;;24.20;68.50;;;;;;5089648;28;20456;-68
2023/06/07 08:27:31;;;;;;;6.97;2.90;;;23.60;67.70;;;;;;5078566;28;20033;-68
2023/06/07 08:29:57;;;;;;;7.05;3.10;;;24.10;68.80;;;;;;5079397;28;20032;-69
2023/06/07 08:32:22;;;;;;;8.15;3.30;;;25.00;66.50;;;;;;5075959;28;20036;-69
2023/06/07 08:34:48;;;;;;;5.88;3.15;;;25.00;65.50;;;;;;5075826;28;20103;-70
2023/06/07 08:37:13;;;;;;;8.02;3.28;;;24.20;66.90;;;;;;5091006;28;20093;-69
2023/06/07 08:39:39;;;;;;;7.68;3.10;;;24.30;65.40;;;;;;5088525;28;20056;-69
2023/06/07 08:42:05;;;;;;;7.30;3.25;;;24.50;66.10;;;;;;5069791;28;20028;-69
2023/06/07 08:44:31;;;;;;;6.47;2.97;;;25.00;65.50;;;;;;5080111;28;20028;-69
2023/06/07 08:46:57;;;;;;;8.68;3.25;;;25.50;64.20;;;;;;5079414;28;20032;-69
2023/06/07 08:49:24;;;;;;;6.38;3.47;;;25.80;62.10;;;;;;5075902;28;20390;-70
2023/06/07 08:51:51;;;;;;;5.07;3.10;;;25.20;63.40;;;;;;5076054;28;20026;-69
2023/06/07 08:54:20;;;;;;;6.88;3.03;;;24.70;66.00;;;;;;5076212;28;20326;-69
2023/06/07 08:56:47;;;;;;;7.55;3.20;;;24.90;64.80;;;;;;5090628;28;20016;-70
2023/06/07 08:59:14;;;;;;;8.35;3.00;;;25.00;64.30;;;;;;5077828;28;20093;-69
2023/06/07 09:01:42;;;;;;;6.60;3.08;;;25.00;65.10;;;;;;5084320;28;20055;-70
2023/06/07 09:04:08;;;;;;;10.77;3.47;;;24.80;65.10;;;;;;5081564;28;20032;-69
2023/06/07 09:06:33;;;;;;;7.85;3.08;;;24.70;65.20;;;;;;5081097;28;20421;-68
2023/06/07 09:08:59;;;;;;;6.07;3.08;;;24.80;65.70;;;;;;5079689;28;20310;-70
2023/06/07 09:11:26;;;;;;;8.13;2.97;;;24.90;65.30;;;;;;5085552;28;20515;-70
2023/06/07 09:13:55;;;;;;;5.50;2.95;;;25.30;63.80;;;;;;5075234;28;20113;-69
2023/06/07 09:16:21;;;;;;;7.43;3.08;;;25.50;64.10;;;;;;5061788;28;20322;-70
2023/06/07 09:18:54;;;;;;;8.70;3.20;;;25.40;64.30;;;;;;5075558;28;20025;-69
2023/06/07 09:21:29;;;;;;;8.48;3.60;;;25.50;63.50;;;;;;5075890;28;20024;-70
2023/06/07 09:23:58;;;;;;;6.13;3.33;;;25.30;63.30;;;;;;5074398;28;20209;-70
2023/06/07 09:26:34;;;;;;;6.38;3.10;;;25.60;64.80;;;;;;5075875;28;20418;-69
2023/06/07 09:29:06;;;;;;;5.78;3.40;;;26.00;62.30;;;;;;5087997;28;20028;-70
2023/06/07 09:31:34;;;;;;;7.28;3.42;;;25.40;64.40;;;;;;5062738;28;20116;-70
2023/06/07 09:34:20;;;;;;;7.47;3.00;;;25.60;63.20;;;;;;5075214;28;20426;-70
2023/06/07 09:36:56;;;;;;;6.97;3.70;;;25.80;63.90;;;;;;5075543;28;20072;-70
2023/06/07 09:39:31;;;;;;;5.22;3.00;;;26.70;62.70;;;;;;5074290;28;20429;-70
2023/06/07 09:41:57;;;;;;;6.68;3.25;;;27.40;60.70;;;;;;5079245;28;20058;-69
2023/06/07 09:44:26;;;;;;;6.40;3.22;;;27.20;60.00;;;;;;5083670;28;20039;-69
2023/06/07 09:46:53;;;;;;;6.03;2.95;;;26.50;60.40;;;;;;5086446;28;20138;-69
2023/06/07 09:49:34;;;;;;;5.93;3.25;;;26.40;61.70;;;;;;5079126;28;20024;-70
2023/06/07 09:52:13;;;;;;;5.28;3.05;;;26.30;61.00;;;;;;5090194;28;20428;-68
2023/06/07 09:54:44;;;;;;;7.60;3.35;;;26.80;61.20;;;;;;5084770;28;20069;-68
2023/06/07 09:57:10;;;;;;;8.77;3.65;;;27.40;58.70;;;;;;5083501;28;20027;-70
2023/06/07 09:59:38;;;;;;;6.43;3.10;;;27.20;58.10;;;;;;5085572;28;20097;-69
2023/06/07 10:02:30;;;;;;;7.57;2.88;;;26.90;59.20;;;;;;5087969;28;20093;-69
2023/06/07 10:04:57;;;;;;;8.30;3.45;;;27.30;58.20;;;;;;5083986;28;20083;-69
2023/06/07 10:07:23;;;;;;;7.75;3.05;;;27.80;58.20;;;;;;5083402;28;20024;-69
2023/06/07 10:09:58;;;;;;;6.00;3.15;;;27.70;57.30;;;;;;5082907;28;20108;-70
2023/06/07 10:12:31;;;;;;;4.90;2.90;;;27.40;57.20;;;;;;5080152;28;20040;-69
2023/06/07 10:15:00;;;;;;;6.90;3.60;;;27.50;57.10;;;;;;5075066;28;20036;-69
2023/06/07 10:17:33;;;;;;;6.95;3.03;;;28.00;56.40;;;;;;5076779;28;20024;-69
2023/06/07 10:20:03;;;;;;;8.45;3.42;;;27.80;56.40;;;;;;5076437;28;20032;-69
2023/06/07 10:22:36;;;;;;;7.03;3.70;;;28.00;57.50;;;;;;5077790;28;20020;-69
2023/06/07 10:25:16;;;;;;;6.05;2.97;;;27.50;54.70;;;;;;5093023;28;20089;-69
2023/06/07 10:28:01;;;;;;;8.82;3.10;;;28.10;56.70;;;;;;5098221;28;20024;-70
2023/06/07 10:30:29;;;;;;;6.88;3.03;;;28.40;56.30;;;;;;5086920;28;20417;-69
2023/06/07 10:32:57;;;;;;;5.75;3.25;;;27.90;56.60;;;;;;5091368;28;20044;-69
2023/06/07 10:35:26;;;;;;;6.40;3.15;;;27.50;56.90;;;;;;5064375;28;20036;-69
2023/06/07 10:37:53;;;;;;;8.25;3.35;;;27.10;57.40;;;;;;5077231;28;20041;-69
2023/06/07 10:40:21;;;;;;;6.80;3.10;;;27.00;57.50;;;;;;5078262;28;20386;-69
2023/06/07 10:42:47;;;;;;;6.85;3.45;;;27.20;56.50;;;;;;5078242;28;20025;-69
2023/06/07 10:45:16;;;;;;;6.57;3.67;;;26.90;56.50;;;;;;5093997;28;20031;-69
2023/06/07 10:47:47;;;;;;;5.40;3.33;;;26.40;58.10;;;;;;5091428;28;20020;-69
2023/06/07 10:50:27;;;;;;;6.75;3.70;;;26.40;57.90;;;;;;5066548;28;20379;-69
2023/06/07 10:53:00;;;;;;;6.20;3.25;;;26.40;56.80;;;;;;5083100;28;20028;-69
2023/06/07 10:55:31;;;;;;;7.40;2.93;;;26.50;57.10;;;;;;5087500;28;20043;-69
2023/06/07 10:58:00;;;;;;;6.68;2.97;;;26.30;58.50;;;;;;5079539;28;20123;-69
2023/06/07 11:00:29;;;;;;;6.75;3.15;;;26.50;57.80;;;;;;5090549;28;20028;-69
2023/06/07 11:03:22;;;;;;;7.65;3.42;;;26.10;57.50;;;;;;5097746;28;20099;-69
2023/06/07 11:06:01;;;;;;;7.72;3.50;;;26.00;58.50;;;;;;5047295;28;20033;-69
2023/06/07 11:08:33;;;;;;;8.60;3.53;;;26.20;56.40;;;;;;5083929;28;20024;-70
2023/06/07 11:11:03;;;;;;;5.03;3.20;;;26.90;55.60;;;;;;5081545;28;20058;-70
2023/06/07 11:13:43;;;;;;;6.75;3.40;;;26.80;54.70;;;;;;5081222;28;20064;-70
2023/06/07 11:16:24;;;;;;;8.07;3.00;;;26.70;54.80;;;;;;5077324;28;20047;-70
2023/06/07 11:19:00;;;;;;;6.93;3.45;;;27.20;55.30;;;;;;5092007;28;20535;-70
2023/06/07 11:21:30;;;;;;;5.28;3.08;;;26.50;56.60;;;;;;5085651;28;20108;-70
2023/06/07 11:24:12;;;;;;;8.10;3.42;;;25.90;56.00;;;;;;5058212;28;20031;-70
2023/06/07 11:26:38;;;;;;;5.63;3.55;;;25.50;56.60;;;;;;5091543;28;20058;-70
2023/06/07 11:29:05;;;;;;;5.35;3.63;;;25.90;57.10;;;;;;5090473;28;20378;-70
2023/06/07 11:31:31;;;;;;;5.03;3.20;;;26.20;56.10;;;;;;5076150;28;20045;-70
2023/06/07 11:33:57;;;;;;;7.25;3.30;;;26.70;57.10;;;;;;5079551;28;20417;-70
2023/06/07 11:36:23;;;;;;;5.43;3.47;;;27.40;55.10;;;;;;5095242;28;20072;-70
2023/06/07 11:38:49;;;;;;;7.97;3.28;;;28.30;54.80;;;;;;5094496;28;20028;-70
2023/06/07 11:41:15;;;;;;;5.50;3.30;;;28.60;52.00;;;;;;5091953;28;20110;-69
2023/06/07 11:43:40;;;;;;;6.47;3.20;;;27.70;51.70;;;;;;5095993;28;20369;-69
2023/06/07 11:46:06;;;;;;;7.03;3.17;;;27.30;52.30;;;;;;5096262;28;20366;-69
2023/06/07 11:48:32;;;;;;;6.20;3.25;;;27.30;51.20;;;;;;5091768;28;20032;-68
2023/06/07 11:51:00;;;;;;;7.60;2.92;;;27.90;53.30;;;;;;5096910;28;20024;-70
2023/06/07 11:53:30;;;;;;;6.93;3.05;;;28.60;53.20;;;;;;5096281;28;20048;-69
2023/06/07 11:55:56;;;;;;;8.82;3.00;;;28.90;52.20;;;;;;5097346;28;20042;-68
2023/06/07 11:58:23;;;;;;;6.32;2.92;;;28.90;50.90;;;;;;5070375;28;20471;-67
2023/06/07 12:00:52;;;;;;;6.70;3.25;;;28.70;51.90;;;;;;5076710;28;20028;-68
2023/06/07 12:03:21;;;;;;;6.60;3.20;;;28.80;51.40;;;;;;5092117;28;20027;-69
2023/06/07 12:05:47;;;;;;;4.97;3.03;;;28.20;49.60;;;;;;5095289;28;20027;-70
2023/06/07 12:08:16;;;;;;;8.43;4.00;;;28.00;52.10;;;;;;5092468;28;20306;-69
2023/06/07 12:10:42;;;;;;;6.25;3.45;;;27.60;50.90;;;;;;5079595;28;20070;-70
2023/06/07 12:13:14;;;;;;;5.40;2.90;;;27.70;51.00;;;;;;5063611;28;20483;-69
2023/06/07 12:16:10;;;;;;;5.82;3.35;;;28.20;51.30;;;;;;5085761;28;20024;-70
2023/06/07 12:18:41;;;;;;;6.93;3.08;;;27.60;51.30;;;;;;5085438;28;20179;-70
2023/06/07 12:21:09;;;;;;;5.72;3.45;;;27.30;51.90;;;;;;5077596;28;20649;-69
2023/06/07 12:23:47;;;;;;;5.78;2.90;;;27.60;50.30;;;;;;5089273;28;20032;-70
2023/06/07 12:26:15;;;;;;;7.65;3.58;;;28.10;51.20;;;;;;5082403;28;20052;-70
2023/06/07 12:28:42;;;;;;;5.72;3.40;;;28.80;48.80;;;;;;5080415;28;20111;-70
2023/06/07 12:31:26;;;;;;;6.45;3.45;;;28.60;49.20;;;;;;5076401;28;20158;-70
2023/06/07 12:33:59;;;;;;;8.07;3.42;;;28.40;50.50;;;;;;5084890;28;20036;-69
2023/06/07 12:36:33;;;;;;;5.95;3.50;;;28.90;49.50;;;;;;5075806;28;20040;-69
2023/06/07 12:39:08;;;;;;;7.28;4.03;;;29.00;49.00;;;;;;5074922;28;20020;-68
2023/06/07 12:41:35;;;;;;;7.93;3.35;;;28.90;48.60;;;;;;5079145;28;20073;-69
2023/06/07 12:44:10;;;;;;;5.53;2.90;;;29.00;50.40;;;;;;5076997;28;20031;-68
2023/06/07 12:46:36;;;;;;;6.63;3.05;;;28.60;50.50;;;;;;5089889;28;20036;-68
2023/06/07 12:49:02;;;;;;;7.88;3.10;;;28.20;50.30;;;;;;5092401;28;20028;-68
2023/06/07 12:51:28;;;;;;;4.68;2.80;;;28.30;50.00;;;;;;5077054;28;20032;-70